Cylinder, Iowa
Current Conditions -  °F | °C
As of 5:15 AM on Saturday 25 Oct 2014 (Local Time) from KAXA Reporting Station
Clear Clear  
Wind Chill: 54°   Ceiling: Unl
Heat Index: 54°   Visibility: 10mi
Dew Point: 41°   Wind: 7mph
Humidity: 62%   Direction: 310°NW
Pressure: 30.03"   Gusts: NA
Location:  43.09°N, 94.55°W
Report Text: KAXA 251015Z AUTO 31006KT 10SM CLR 12/05 A3003 RMK AO2
Loading
Personal Weather Stations






























Interactive Weather Map
Tropical Storm Tracking
New forecast layout! Learn more

10-Day Weather Forecast

Advertisements
Track Severe Weather on mobile